• Join FlightAware (Why Join?)
  • Login
  • US Flag 
02:44AM EST


 

Airport Tracker/Info


-or-


 

Live Flight TrackerFlight Track Log ✈ TAM3377 ✈ 02-Sep-2013 ✈ SBVT / VIX - SBGR / GRU

Flight Track Log - Related Links

Times and Time Zones

All times are in EDT time to prevent confusion due to time zone crossing. See the TAM3377 flight status page for this flight to view local times or setup timezone preferences in your user account.

Time Position Orientation Groundspeed Altitude Reporting Facility
EDT Latitude Longitude Course Direction KTS MPH feet Rate Location/Type
10:40AM -20.2610 -40.2750 107° East 131 151  Level FlightAware
10:41AM -20.2610 -40.2760 270° West 131 151 11 Level FlightAware
10:42AM -20.2610 -40.2750 90° East 131 151 11 Level FlightAware
10:42AM -20.2610 -40.2740 90° East 131 151 12 Level FlightAware
10:43AM -20.2570 -40.2890 286° West 131 151 12 Level FlightAware
10:43AM -20.2610 -40.2750 107° East 131 151 12 Level FlightAware
10:44AM -20.2610 -40.2740 90° East 131 151 12 Level FlightAware
10:44AM -20.2610 -40.2750 270° West 131 151 13 Level FlightAware
10:44AM -20.2570 -40.2890 287° West 131 151 13 Level FlightAware
10:45AM -20.2610 -40.2750 107° East 131 151 13 Level FlightAware
10:45AM -20.2610 -40.2740 90° East 131 151 13 Level FlightAware
10:46AM -20.2610 -40.2750 270° West 131 151 14 Level FlightAware
10:47AM -20.2610 -40.2760 270° West 131 151 14 Level FlightAware
10:47AM -20.2610 -40.2750 90° East 131 151 14 Level FlightAware
10:49AM -20.2610 -40.2750 240° Southwest 131 151 15 Level FlightAware
10:50AM -20.3594 -40.4569 240° Southwest  Level Estimated
10:51AM -20.2610 -40.2760 270° West 131 151  Level FlightAware
10:52AM -20.2610 -40.2750 90° East 131 151 18 Level FlightAware
10:53AM -20.2610 -40.2760 270° West 131 151 19 Level FlightAware
10:54AM -20.2610 -40.2750 90° East 131 151 21 Level FlightAware
10:54AM -20.2610 -40.2740 90° East 131 151 22 Level FlightAware
10:55AM -20.2610 -40.2750 270° West 131 151 22 Level FlightAware
10:56AM -20.2610 -40.2760 270° West 131 151 23 Level FlightAware
10:56AM -20.2610 -40.2750 90° East 131 151 25 Level FlightAware
10:57AM -20.2610 -40.2760 270° West 131 151 26 Level FlightAware
10:58AM -20.2610 -40.2750 90° East 131 151 29 Level FlightAware
10:58AM -20.2610 -40.2740 90° East 131 151 30 Level FlightAware
10:59AM -20.2610 -40.2760 270° West 131 151 32 Level FlightAware
11:00AM -20.2610 -40.2750 90° East 131 151 34 Level FlightAware
11:00AM -20.2610 -40.2730 90° East 131 151 38 Level FlightAware
11:02AM -20.2570 -40.2880 286° West 131 151 41 Level FlightAware
11:04AM -20.3447 -40.4495 240° Southwest  Level Estimated
11:04AM -20.2530 -40.2740 240° Southwest 131 151  Level FlightAware
11:05AM -20.3916 -40.5361 240° Southwest  Level Estimated
11:05AM -20.2520 -40.2730 43° Northeast 131 151  Level FlightAware
11:06AM -20.2600 -40.2900 243° Southwest 131 151 117 Level FlightAware
11:07AM -20.2570 -40.2770 76° East 131 151 247 Level FlightAware
11:07AM -20.2630 -40.2900 244° Southwest 131 151 375 Level FlightAware
11:07AM -20.2580 -40.2870 29° Northeast 131 151 750 Level FlightAware
11:08AM -20.2500 -40.2820 30° Northeast 149 171 300 2,063 Climbing FlightAware
11:08AM -20.2390 -40.2740 34° Northeast 157 181 1,100 1,902 Climbing FlightAware
11:08AM -20.2220 -40.2630 31° Northeast 187 215 1,600 1,231 Climbing FlightAware
11:09AM -20.2100 -40.2560 29° Northeast 208 239 1,900 2,233 Climbing FlightAware
11:09AM -20.1900 -40.2370 42° Northeast 238 274 3,200 3,097 Climbing FlightAware
11:09AM -20.1870 -40.2310 62° Northeast 243 280 3,500 4,500 Climbing FlightAware
11:09AM -20.1860 -40.2190 85° East 251 289 4,100 4,167 Climbing FlightAware
11:10AM -20.2120 -40.1760 123° Southeast 280 322 6,000 3,750 Climbing FlightAware
11:10AM -20.2330 -40.1740 175° South 272 313 7,100 2,710 Climbing FlightAware
11:10AM -20.2460 -40.1730 176° South 280 322 7,400 1,440 Climbing FlightAware
11:10AM -20.2550 -40.1720 174° South 286 329 7,700 2,747 Climbing FlightAware
11:12AM -20.3850 -40.1780 182° South 338 389 11,200 2,579 Climbing FlightAware
11:12AM -20.4180 -40.2030 215° Southwest 347 399 12,300 2,595 Climbing FlightAware
11:13AM -20.4730 -40.2450 216° Southwest 344 396 14,400 2,625 Climbing FlightAware
11:14AM -20.5260 -40.2850 215° Southwest 358 412 15,800 2,104 Climbing FlightAware
11:14AM -20.5700 -40.3180 215° Southwest 363 418 17,100 2,400 Climbing FlightAware
11:15AM -20.6160 -40.3620 222° Southwest 364 419 18,600 2,531 Climbing FlightAware
11:15AM -20.6600 -40.4000 219° Southwest 370 426 19,800 2,143 Climbing FlightAware
11:16AM -20.7200 -40.4480 217° Southwest 382 440 21,100 1,737 Climbing FlightAware
11:16AM -20.7660 -40.4850 217° Southwest 391 450 22,000 1,690 Climbing FlightAware
11:17AM -20.8190 -40.5280 217° Southwest 397 457 23,100 1,791 Climbing FlightAware
11:18AM -20.8650 -40.5640 216° Southwest 402 463 24,000 1,545 Climbing FlightAware
11:18AM -20.9160 -40.6050 217° Southwest 413 475 24,800 1,500 Climbing FlightAware
11:19AM -20.9780 -40.6550 217° Southwest 420 483 25,800 1,676 Climbing FlightAware
11:19AM -21.0220 -40.6910 217° Southwest 421 484 26,700 1,500 Climbing FlightAware
11:20AM -21.0740 -40.7320 216° Southwest 426 490 27,500 1,437 Climbing FlightAware
11:20AM -21.1260 -40.7740 217° Southwest 425 489 28,400 1,543 Climbing FlightAware
11:21AM -21.1840 -40.8210 217° Southwest 427 491 29,300 1,417 Climbing FlightAware
11:22AM -21.2380 -40.8640 217° Southwest 429 494 30,100 1,443 Climbing FlightAware
11:22AM -21.3190 -40.9300 217° Southwest 430 495 31,200 1,291 Climbing FlightAware
11:23AM -21.3740 -40.9750 217° Southwest 436 502 31,800 1,433 Climbing FlightAware
11:23AM -21.4140 -41.0080 218° Southwest 424 488 32,800 2,182 Climbing FlightAware
11:24AM -21.4670 -41.0500 216° Southwest 404 465 34,200 2,000 Climbing FlightAware
11:25AM -21.5180 -41.0920 217° Southwest 396 456 35,200 1,151 Climbing FlightAware
11:25AM -21.5640 -41.1290 217° Southwest 398 458 35,600 716 Climbing FlightAware
11:26AM -21.6220 -41.1770 218° Southwest 401 461 36,000 845 Climbing FlightAware
11:26AM -21.6850 -41.2280 217° Southwest 404 465 36,600 761 Climbing FlightAware
11:27AM -21.7210 -41.2570 217° Southwest 403 464 36,900 806 Climbing FlightAware
11:28AM -21.7670 -41.2940 217° Southwest 399 459 37,500 892 Climbing FlightAware
11:28AM -21.9010 -41.4040 217° Southwest 403 464 38,000 405 Climbing FlightAware
11:29AM -21.9540 -41.4470 217° Southwest 401 461 38,000  Level FlightAware
11:29AM -22.0110 -41.4940 217° Southwest 400 460 38,000  Level FlightAware
11:30AM -22.0660 -41.5390 217° Southwest 401 461 38,000  Level FlightAware
11:31AM -22.1150 -41.5800 218° Southwest 401 461 38,000  Level FlightAware
11:31AM -22.1650 -41.6210 217° Southwest 401 461 38,000  Level FlightAware
11:32AM -22.2210 -41.6670 217° Southwest 401 461 38,000  Level FlightAware
11:32AM -22.2680 -41.7060 218° Southwest 400 460 38,000  Level FlightAware
11:33AM -22.3280 -41.7550 217° Southwest 400 460 38,000  Level FlightAware
11:34AM -22.3800 -41.7930 214° Southwest 405 466 38,000  Level FlightAware
11:34AM -22.4350 -41.8300 212° Southwest 405 466 38,000  Level FlightAware
11:35AM -22.4850 -41.8650 213° Southwest 405 466 38,000  Level FlightAware
11:35AM -22.5480 -41.9080 212° Southwest 405 466 38,000  Level FlightAware
11:36AM -22.5950 -41.9400 212° Southwest 405 466 38,000  Level FlightAware
11:36AM -22.6530 -41.9800 212° Southwest 404 465 38,000  Level FlightAware
11:37AM -22.7050 -42.0190 215° Southwest 397 457 38,000  Level FlightAware
11:38AM -22.7530 -42.0700 224° Southwest 389 448 38,000  Level FlightAware
11:38AM -22.7890 -42.1210 233° Southwest 384 442 38,000  Level FlightAware
11:39AM -22.8190 -42.1800 241° Southwest 379 436 38,000  Level FlightAware
11:39AM -22.8410 -42.2430 249° West 376 433 38,000  Level FlightAware
11:40AM -22.8550 -42.3080 257° West 373 429 38,000  Level FlightAware
11:41AM -22.8680 -42.3750 258° West 374 430 38,000  Level FlightAware
11:41AM -22.8800 -42.4370 258° West 373 429 38,000  Level FlightAware
11:42AM -22.8920 -42.5000 258° West 373 429 38,000  Level FlightAware
11:42AM -22.9030 -42.5590 259° West 373 429 38,000  Level FlightAware
11:43AM -22.9160 -42.6230 258° West 373 429 38,000  Level FlightAware
11:43AM -22.9290 -42.6910 258° West 373 429 38,000  Level FlightAware
11:44AM -22.9420 -42.7600 258° West 372 428 38,000 -87 Level FlightAware
11:45AM -22.9530 -42.8190 259° West 372 428 37,900 -102 Descending FlightAware
11:45AM -22.9630 -42.8680 257° West 373 429 37,900  Level FlightAware
11:46AM -22.9760 -42.9350 258° West 375 432 37,900 83 Level FlightAware
11:46AM -22.9910 -43.0010 256° West 376 433 38,000 83 Climbing FlightAware
11:47AM -23.0060 -43.0670 256° West 377 434 38,000  Level FlightAware
11:47AM -23.0200 -43.1280 256° West 377 434 38,000  Level FlightAware
11:48AM -23.0340 -43.1950 257° West 376 433 38,000 -90 Level FlightAware
11:49AM -23.0470 -43.2550 257° West 377 434 37,900 -88 Descending FlightAware
11:49AM -23.0610 -43.3190 257° West 379 436 37,900  Level FlightAware
11:50AM -23.0760 -43.3890 257° West 382 440 37,900 83 Level FlightAware
11:50AM -23.0900 -43.4530 257° West 382 440 38,000 88 Climbing FlightAware
11:51AM -23.1040 -43.5150 256° West 382 440 38,000  Level FlightAware
11:52AM -23.1180 -43.5810 257° West 383 441 38,000  Level FlightAware
11:52AM -23.1320 -43.6480 257° West 383 441 38,000  Level FlightAware
11:53AM -23.1470 -43.7160 256° West 383 441 38,000  Level FlightAware
11:53AM -23.1600 -43.7770 257° West 382 440 38,000  Level FlightAware
11:54AM -23.1750 -43.8470 257° West 382 440 38,000  Level FlightAware
11:54AM -23.1880 -43.9100 257° West 382 440 38,000  Level FlightAware
11:55AM -23.2020 -43.9750 257° West 381 438 38,000  Level FlightAware
11:56AM -23.2160 -44.0410 257° West 379 436 38,000  Level FlightAware
11:56AM -23.2300 -44.1050 257° West 378 435 38,000 -86 Level FlightAware
11:57AM -23.2440 -44.1700 257° West 377 434 37,900  Descending FlightAware
11:57AM -23.2580 -44.2370 257° West 377 434 38,000 88 Climbing FlightAware
11:58AM -23.2700 -44.2950 257° West 377 434 38,000  Level FlightAware
11:59AM -23.2860 -44.3670 256° West 377 434 38,000  Level FlightAware
11:59AM -23.2980 -44.4250 257° West 378 435 38,000  Level FlightAware
12:00PM -23.3120 -44.4930 257° West 378 435 38,000  Level FlightAware
12:00PM -23.3250 -44.5580 258° West 380 437 38,000  Level FlightAware
12:01PM -23.3410 -44.6310 257° West 381 438 38,000  Level FlightAware
12:01PM -23.3540 -44.6940 257° West 381 438 38,000  Level FlightAware
12:02PM -23.3690 -44.7660 257° West 380 437 38,000  Level FlightAware
12:03PM -23.3830 -44.8320 257° West 379 436 38,000  Level FlightAware
12:04PM -23.4000 -44.9140 257° West 378 435 38,000  Level FlightAware
12:04PM -23.4160 -44.9910 257° West 377 434 38,000 -86 Level FlightAware
12:05PM -23.4270 -45.0450 257° West 378 435 37,900 -185 Descending FlightAware
12:05PM -23.4410 -45.1120 257° West 379 436 37,800 -1,360 Descending FlightAware
12:06PM -23.4560 -45.1840 257° West 378 435 36,200 -2,486 Descending FlightAware
12:06PM -23.4690 -45.2410 256° West 376 433 34,900 -2,400 Descending FlightAware
12:07PM -23.4830 -45.3050 257° West 372 428 33,600 -2,282 Descending FlightAware
12:08PM -23.4960 -45.3680 257° West 368 423 32,200 -2,314 Descending FlightAware
12:08PM -23.5090 -45.4320 257° West 363 418 30,900 -2,261 Descending FlightAware
12:09PM -23.5210 -45.4940 258° West 363 418 29,600 -2,314 Descending FlightAware
12:09PM -23.5340 -45.5570 257° West 367 422 28,200 -2,400 Descending FlightAware
12:10PM -23.5470 -45.6210 257° West 370 426 26,800 -2,314 Descending FlightAware
12:11PM -23.5600 -45.6840 257° West 369 425 25,500 -2,507 Descending FlightAware
12:11PM -23.5720 -45.7450 258° West 372 428 24,000 -2,743 Descending FlightAware
12:12PM -23.5880 -45.8160 256° West 376 433 22,300 -2,143 Descending FlightAware
12:12PM -23.6070 -45.8710 249° West 358 412 21,500 -1,739 Descending FlightAware
12:13PM -23.6300 -45.9300 247° West 352 405 20,300 -2,108 Descending FlightAware
12:13PM -23.6540 -45.9930 247° West 347 399 18,900 -1,739 Descending FlightAware
12:14PM -23.6730 -46.0430 247° West 334 384 18,300 -909 Descending FlightAware
12:15PM -23.6920 -46.0940 248° West 313 360 17,900 -771 Descending FlightAware
12:15PM -23.7100 -46.1430 248° West 294 338 17,400 -1,083 Descending FlightAware
12:16PM -23.7290 -46.1950 248° West 286 329 16,600 -1,167 Descending FlightAware
12:16PM -23.7460 -46.2400 248° West 276 318 16,000 -1,235 Descending FlightAware
12:17PM -23.7620 -46.2820 247° West 278 320 15,200 -1,235 Descending FlightAware
12:17PM -23.7790 -46.3280 248° West 272 313 14,600 -1,100 Descending FlightAware
12:18PM -23.7880 -46.3590 252° West 270 311 14,100 -808 Descending FlightAware
12:18PM -23.7760 -46.3950 290° West 278 320 13,900 -500 Descending FlightAware
12:18PM -23.7680 -46.4010 326° Northwest 280 322 13,800 -500 Descending FlightAware
12:19PM -23.7490 -46.4070 344° North 280 322 13,700 -462 Descending FlightAware
12:19PM -23.7010 -46.4140 352° North 275 316 13,400 -740 Descending FlightAware
12:20PM -23.6560 -46.4220 351° North 275 316 12,800 -1,059 Descending FlightAware
12:20PM -23.6150 -46.4290 351° North 273 314 12,200 -1,043 Descending FlightAware
12:21PM -23.5700 -46.4370 351° North 267 307 11,600 -720 Descending FlightAware
12:22PM -23.5260 -46.4440 352° North 245 282 11,300 -529 Descending FlightAware
12:22PM -23.4910 -46.4500 351° North 239 275 11,000 -269 Descending FlightAware
12:23PM -23.4520 -46.4590 348° North 240 276 11,000 -250 Level FlightAware
12:23PM -23.4140 -46.4730 341° North 238 274 10,700 -794 Descending FlightAware
12:24PM -23.3810 -46.4850 342° North 236 272 10,100 -1,080 Descending FlightAware
12:24PM -23.3630 -46.4920 340° North 233 268 9,800 -1,235 Descending FlightAware
12:25PM -23.3460 -46.4980 342° North 236 272 9,400 -1,385 Descending FlightAware
12:25PM -23.3360 -46.4990 355° North 239 275 9,200 -1,000 Descending FlightAware
12:25PM -23.3160 -46.4910 20° North 227 261 8,900 -1,000 Descending FlightAware
12:25PM -23.3090 -46.4820 50° Northeast 233 268 8,700 -1,200 Descending FlightAware
12:26PM -23.3010 -46.4600 68° East 234 269 8,300 -900 Descending FlightAware
12:26PM -23.2940 -46.4380 71° East 224 258 8,100 -600 Descending FlightAware
12:26PM -23.2880 -46.4170 73° East 215 247 7,900 -900 Descending FlightAware
12:27PM -23.2820 -46.3970 72° East 208 239 7,500 -1,050 Descending FlightAware
12:27PM -23.2760 -46.3770 72° East 207 238 7,200 -941 Descending FlightAware
12:27PM -23.2680 -46.3470 74° East 205 236 6,700 -824 Descending FlightAware
12:28PM -23.2630 -46.3260 75° East 213 245 6,500 -720 Descending FlightAware
12:28PM -23.2620 -46.3190 81° East 214 246 6,400 -889 Descending FlightAware
12:28PM -23.2670 -46.2980 105° East 212 244 6,100 -500 Descending FlightAware
12:29PM -23.2740 -46.2780 111° Southeast 213 245 6,000 -240 Descending FlightAware
12:29PM -23.2830 -46.2540 112° Southeast 214 246 5,900 -486 Descending FlightAware
12:29PM -23.2880 -46.2420 114° Southeast 215 247 5,700 -571 Descending FlightAware
12:29PM -23.2930 -46.2340 124° Southeast 215 247 5,700  Level FlightAware
12:30PM -23.3050 -46.2260 149° Southeast 206 237 5,700 -235 Level FlightAware
12:30PM -23.3330 -46.2170 164° South 181 208 5,500 -321 Descending FlightAware
12:31PM -23.3510 -46.2320 217° Southwest 149 171 5,400 -293 Descending FlightAware
12:31PM -23.3610 -46.2430 225° Southwest 149 171 5,300 -300 Descending FlightAware
12:31PM -23.3710 -46.2530 223° Southwest 156 180 5,200 -343 Descending FlightAware
12:31PM -23.3770 -46.2630 237° Southwest 152 175 5,100 -600 Descending FlightAware
12:32PM -23.3780 -46.2660 250° West 147 169 5,000 -300 Descending FlightAware
12:32PM -23.3820 -46.2770 248° West 151 174 5,000  Level FlightAware
12:32PM -23.3880 -46.2980 253° West 148 170 5,000  Level FlightAware
12:33PM -23.3910 -46.3100 255° West 149 171 5,000 -450 Level FlightAware
12:33PM -23.3960 -46.3290 254° West 149 171 4,700 -750 Descending FlightAware
12:33PM -23.3990 -46.3390 252° West 153 176 4,500 -667 Descending FlightAware
12:34PM -23.4050 -46.3620 254° West 153 176 4,200 -720 Descending FlightAware
12:34PM -23.4090 -46.3760 253° West 149 171 3,900 -900 Descending FlightAware
12:34PM -23.4130 -46.3910 254° West 142 163 3,600 -750 Descending FlightAware
12:35PM -23.4160 -46.4040 256° West 141 162 3,400 -600 Descending FlightAware
12:35PM -23.4200 -46.4190 254° West 141 162 3,200 -686 Descending FlightAware
12:35PM -23.4230 -46.4290 252° West 137 158 3,000 -686 Descending FlightAware
12:36PM -23.4260 -46.4410 255° West 141 162 2,800 -774 Descending FlightAware
12:36PM -23.4280 -46.4490 255° West 139 160 2,600 -316 Descending FlightAware
12:36PM -23.4320 -46.4640 254° West 139 160 2,600  Level FlightAware
12:39PM -23.4321 -46.4695 269° West  Level Estimated